2022年6月24日

时间 代码 天气 温度 能见度 天花板 METAR/SPECI
9:00 下午
V
75 °F 15 mi - 160° 160° 7 kt METAR CYYZ 250100Z 16007KT 15SM FEW180 FEW250 24/13 A3004 RMK AC1CI1 AC TR SLP173 DENSITY ALT 1600FT
8:00 下午
V
77 °F 15 mi - 150° 150° 8 kt METAR CYYZ 250000Z 15008KT 15SM FEW250 25/09 A3003 RMK CI1 CI TR SLP170 DENSITY ALT 1800FT
7:00 下午
V
81 °F 15 mi - 150° 150° 9 kt METAR CYYZ 242300Z 15009KT 15SM FEW250 27/07 A3002 RMK CI1 SLP167 DENSITY ALT 2000FT
6:00 下午
V
82 °F 15 mi - 170° 170° 9 kt METAR CYYZ 242200Z 17009KT 15SM FEW250 28/07 A3002 RMK CI2 SLP167 DENSITY ALT 2100FT
5:00 下午
V
82 °F 15 mi - 150° 150° 8 kt METAR CYYZ 242100Z 15008KT 15SM SCT250 28/07 A3002 RMK CI3 SLP166 DENSITY ALT 2200FT
4:00 下午
V
82 °F 15 mi 25.000 ft 140° 140° 10 kt METAR CYYZ 242000Z 14010KT 15SM BKN250 28/08 A3002 RMK CI5 SLP165 DENSITY ALT 2100FT
3:00 下午
V
81 °F 15 mi 25.000 ft 150° 150° 8 kt METAR CYYZ 241900Z 15008KT 15SM BKN250 27/08 A3002 RMK CI6 SLP168 DENSITY ALT 2000FT
2:00 下午
V
81 °F 15 mi 25.000 ft 150° 150° 9 kt METAR CYYZ 241800Z 15009KT 110V170 15SM BKN250 27/09 A3002 RMK CI5 SLP167 DENSITY ALT 2000FT
1:00 下午
V
79 °F 15 mi - 060° 060° 5 kt METAR CYYZ 241700Z 06005KT 15SM SCT250 26/09 A3003 RMK CI4 SLP169 DENSITY ALT 1900FT
12:00 下午
V
79 °F 15 mi - 240° 240° 5 kt METAR CYYZ 241600Z 24005KT 170V340 15SM SCT250 26/06 A3004 RMK CI3 SLP171 DENSITY ALT 1900FT
11:00 上午
V
77 °F 15 mi - 260° 260° 4 kt METAR CYYZ 241500Z 26004KT 190V290 15SM FEW250 25/08 A3005 RMK CI2 SLP175 DENSITY ALT 1700FT
10:00 上午
V
73 °F 15 mi - 330° 330° 5 kt METAR CYYZ 241400Z 33005KT 290V350 15SM FEW250 23/10 A3005 RMK CI1 SLP178 DENSITY ALT 1500FT
9:00 上午
V
70 °F 15 mi - 360° 360° 6 kt METAR CYYZ 241300Z 36006KT 15SM FEW250 21/09 A3004 RMK CI1 SLP175 DENSITY ALT 1300FT
8:00 上午
V
66 °F 15 mi - 360° 360° 7 kt METAR CYYZ 241200Z 36007KT 15SM FEW250 19/08 A3004 RMK CI1 SLP172 DENSITY ALT 1100FT
7:00 上午
V
63 °F 15 mi - 320° 320° 6 kt METAR CYYZ 241100Z 32006KT 15SM FEW250 17/08 A3003 RMK CI1 SLP168 DENSITY ALT 900FT
6:00 上午
V
59 °F 15 mi - 310° 310° 5 kt METAR CYYZ 241000Z 31005KT 15SM FEW200 15/08 A3000 RMK CI1 SLP161 DENSITY ALT 600FT
5:00 上午
V
59 °F 15 mi - 300° 300° 4 kt METAR CYYZ 240900Z 30004KT 15SM FEW250 15/08 A2998 RMK CI1 CI TR SLP153 DENSITY ALT 700FT
4:00 上午
V
61 °F 15 mi - 280° 280° 4 kt METAR CYYZ 240800Z 28004KT 15SM SKC 16/08 A2998 RMK SLP151 DENSITY ALT 800FT
3:00 上午
V
61 °F 15 mi - 310° 310° 5 kt METAR CYYZ 240700Z 31005KT 15SM SKC 16/08 A2998 RMK SLP152 DENSITY ALT 800FT
2:00 上午
V
61 °F 15 mi - 350° 350° 4 kt METAR CYYZ 240600Z 35004KT 15SM SKC 16/08 A2998 RMK SLP154 DENSITY ALT 800FT
1:00 上午
V
64 °F 15 mi - 340° 340° 10 kt METAR CYYZ 240500Z 34010KT 15SM SKC 18/08 A2998 RMK SLP153 DENSITY ALT 1000FT
12:00 上午
V
66 °F 15 mi - 350° 350° 8 kt METAR CYYZ 240400Z 35008KT 15SM SKC 19/08 A2998 RMK SLP153 DENSITY ALT 1100FT

2022年6月23日

时间 代码 天气 温度 能见度 天花板 METAR/SPECI
11:00 下午
V
68 °F 15 mi - 010° 010° 10 kt METAR CYYZ 240300Z 01010KT 15SM SKC 20/06 A2997 RMK SLP148 DENSITY ALT 1300FT
10:00 下午
V
70 °F 15 mi - 010° 010° 11 kt METAR CYYZ 240200Z 01011KT 15SM SKC 21/06 A2996 RMK SLP145 DENSITY ALT 1400FT
9:00 下午
V
73 °F 15 mi - 360° 360° 10 kt METAR CYYZ 240100Z 36010KT 15SM FEW065 23/09 A2994 RMK SC1 SC TR SLP139 DENSITY ALT 1600FT
8:00 下午
V
75 °F 15 mi - 360° 360° 14 kt METAR CYYZ 240000Z 36014KT 15SM FEW070 24/11 A2993 RMK CU1 CU TR SLP136 DENSITY ALT 1800FT
7:00 下午
V
79 °F 15 mi - 340° 340° 10 - 18 kt METAR CYYZ 232300Z 34010G18KT 15SM FEW070 26/09 A2992 RMK CU1 CU TR SLP132 DENSITY ALT 2000FT
6:00 下午
V
81 °F 15 mi - 350° 350° 9 - 17 kt METAR CYYZ 232200Z 35009G17KT 15SM FEW060 27/10 A2991 RMK CU1 CU TR SLP130 DENSITY ALT 2100FT
5:00 下午
V
81 °F 15 mi - 340° 340° 13 - 19 kt METAR CYYZ 232100Z 34013G19KT 15SM FEW060 27/10 A2992 RMK CU1 CU TR SLP131 DENSITY ALT 2200FT
4:00 下午
V
82 °F 15 mi - 340° 340° 10 - 15 kt METAR CYYZ 232000Z 34010G15KT 310V020 15SM FEW060 28/11 A2992 RMK CU1 CU TR SLP133 DENSITY ALT 2200FT
3:00 下午
V
82 °F 15 mi - 320° 320° 9 - 16 kt METAR CYYZ 231900Z 32009G16KT 270V010 15SM FEW060 28/10 A2992 RMK CU1 SLP134 DENSITY ALT 2200FT
2:00 下午
V
81 °F 15 mi - 340° 340° 10 - 17 kt METAR CYYZ 231800Z 34010G17KT 310V020 15SM FEW058 27/13 A2993 RMK CU1 SLP135 DENSITY ALT 2200FT
1:00 下午
V
82 °F 15 mi - 340° 340° 10 - 18 kt METAR CYYZ 231700Z 34010G18KT 320V030 15SM FEW061 28/14 A2992 RMK CU2 SLP133 DENSITY ALT 2200FT
12:00 下午
V
79 °F 15 mi - 350° 350° 14 - 21 kt METAR CYYZ 231600Z 35014G21KT 15SM FEW061 26/13 A2992 RMK CU2 SLP131 DENSITY ALT 2000FT
11:00 上午
V
77 °F 15 mi 5.900 ft 360° 360° 12 kt METAR CYYZ 231500Z 36012KT 15SM BKN059 25/15 A2992 RMK CU5 SLP133 DENSITY ALT 1900FT
10:00 上午
V
73 °F 15 mi - 360° 360° 11 kt METAR CYYZ 231400Z 36011KT 15SM SCT042 23/15 A2992 RMK CF3 SLP130 DENSITY ALT 1700FT
9:00 上午
V
70 °F 15 mi - 350° 350° 12 kt METAR CYYZ 231300Z 35012KT 15SM FEW030 21/14 A2991 RMK CF1 CF TR SLP129 DENSITY ALT 1400FT
8:00 上午
V
66 °F 15 mi - 350° 350° 16 kt METAR CYYZ 231200Z 35016KT 15SM SKC 19/13 A2990 RMK SLP125 DENSITY ALT 1200FT
7:00 上午
V
63 °F 15 mi - 340° 340° 13 kt METAR CYYZ 231100Z 34013KT 15SM SKC 17/11 A2989 RMK SLP122 DENSITY ALT 1000FT
6:00 上午
V
61 °F 15 mi - 320° 320° 9 kt METAR CYYZ 231000Z 32009KT 15SM SKC 16/11 A2989 RMK SLP120 DENSITY ALT 900FT
5:00 上午
V
61 °F 15 mi - 300° 300° 8 kt METAR CYYZ 230900Z 30008KT 15SM FEW180 16/10 A2988 RMK AC1 AC TR SLP118 DENSITY ALT 900FT
4:00 上午
V
61 °F 15 mi - 290° 290° 8 kt METAR CYYZ 230800Z 29008KT 15SM SKC 16/10 A2987 RMK SLP115 DENSITY ALT 900FT
3:00 上午
V
63 °F 15 mi - 310° 310° 8 kt METAR CYYZ 230700Z 31008KT 15SM SKC 17/10 A2988 RMK SLP116 DENSITY ALT 1000FT
2:00 上午
V
64 °F 15 mi - 320° 320° 13 kt METAR CYYZ 230600Z 32013KT 15SM SKC 18/11 A2989 RMK SLP119 DENSITY ALT 1100FT
1:00 上午
V
66 °F 15 mi - 310° 310° 14 - 23 kt METAR CYYZ 230500Z 31014G23KT 15SM SKC 19/10 A2989 RMK SLP122 DENSITY ALT 1200FT
12:00 上午
V
68 °F 15 mi - 300° 300° 12 kt METAR CYYZ 230400Z 30012KT 15SM FEW250 20/11 A2990 RMK CI1 CI TR SLP125 DENSITY ALT 1400FT

2022年6月22日

时间 代码 天气 温度 能见度 天花板 METAR/SPECI
11:00 下午
V
73 °F 15 mi - 290° 290° 16 kt METAR CYYZ 230300Z 29016KT 15SM FEW210 23/12 A2990 RMK CI1 CI TR SLP125 DENSITY ALT 1600FT
10:00 下午
V
75 °F 15 mi - 320° 320° 17 - 22 kt METAR CYYZ 230200Z 32017G22KT 15SM SKC 24/14 A2989 RMK PRESRR SLP119 DENSITY ALT 1900FT
9:00 下午
V
79 °F 15 mi - 320° 320° 14 - 20 kt METAR CYYZ 230100Z 32014G20KT 15SM FEW180 26/14 A2985 RMK AC1 AC TR SLP105 DENSITY ALT 2100FT
8:00 下午
V
82 °F 15 mi - 340° 340° 15 - 23 kt METAR CYYZ 230000Z 34015G23KT 15SM FEW250 28/12 A2984 RMK CI1 CI TR SLP103 DENSITY ALT 2300FT
7:00 下午
V
84 °F 15 mi - 320° 320° 20 - 26 kt METAR CYYZ 222300Z 32020G26KT 15SM FEW250 29/14 A2982 RMK CI1 CI TR SLP097 DENSITY ALT 2500FT
6:00 下午
V
86 °F 15 mi - 350° 350° 15 - 27 kt METAR CYYZ 222200Z 35015G27KT 15SM FEW060 FEW260 30/16 A2982 RMK CU1CI1 CU TR CI TR SLP096 DENSITY ALT 2600FT
5:00 下午
V
90 °F 15 mi - 340° 340° 18 - 23 kt METAR CYYZ 222100Z 34018G23KT 15SM FEW060 FEW260 32/17 A2982 RMK CU1CI2 CU TR SLP096 DENSITY ALT 2800FT
4:00 下午
V
93 °F 15 mi - 300° 300° 13 - 22 kt METAR CYYZ 222000Z 30013G22KT 15SM FEW060 FEW260 34/10 A2982 RMK CU1CI1 SLP097 DENSITY ALT 3000FT
3:00 下午
V
95 °F 15 mi - 280° 280° 15 - 21 kt METAR CYYZ 221900Z 28015G21KT 15SM FEW060 FEW260 35/16 A2980 RMK CU1CI1 CB TOP S-SE SLP090 DENSITY ALT 3100FT
2:00 下午
V
95 °F 15 mi 24.000 ft 300° 300° 17 kt METAR CYYZ 221800Z 30017KT 15SM FEW058 BKN240 35/19 A2981 RMK CU2CI3 SLP092 DENSITY ALT 3100FT
1:00 下午
V
95 °F 15 mi 24.000 ft 280° 280° 14 - 20 kt METAR CYYZ 221700Z 28014G20KT 15SM SCT048 BKN240 35/22 A2982 RMK CU3CI2 SLP096 DENSITY ALT 3100FT
较旧的数据

下载我们的应用程序

在您的手机和平板电脑上轻松访问所有航空天气。
有许多网站上没有的功能,如离线支持和个人机场列表。

Studio Eveline

Benalmádena
España

我们和第三方通过cookies跟踪您在我们网站上的上网行为。如果您继续,我们认为您同意我们的cookie政策。 了解更多